Time;durP1;ratioP1;P1;durP2;ratioP2;P2;SDS_P1;SDS_P2;PMS_P1;PMS_P2;Temp;Humidity;BMP_temperature;BMP_pressure;BME280_temperature;BME280_humidity;BME280_pressure;Samples;Min_cycle;Max_cycle;Signal;HPM_P1;HPM_P2
2022/09/15 00:01:47;;;;;;;;;;;20.50;87.30;;;;;;6339844;22;19987;-91
2022/09/15 00:04:13;;;;;;;;;;;20.50;87.40;;;;;;6340091;22;19985;-91
2022/09/15 00:06:39;;;;;;;;;;;20.50;87.50;;;;;;6339952;22;19930;-91
2022/09/15 00:09:04;;;;;;;;;;;20.50;87.60;;;;;;6339084;22;20405;-91
2022/09/15 00:11:31;;;;;;;;;;;20.40;87.80;;;;;;6339077;22;19937;-91
2022/09/15 00:13:58;;;;;;;;;;;20.40;88.20;;;;;;6340094;22;20059;-90
2022/09/15 00:16:24;;;;;;;;;;;20.40;88.30;;;;;;6339959;22;19980;-91
2022/09/15 00:18:50;;;;;;;;;;;20.40;88.10;;;;;;6339631;22;20027;-91
2022/09/15 00:21:17;;;;;;;;;;;20.50;88.10;;;;;;6339607;22;19944;-90
2022/09/15 00:23:43;;;;;;;;;;;20.30;87.80;;;;;;6339532;22;19943;-90
2022/09/15 00:26:10;;;;;;;;;;;20.30;87.80;;;;;;6339679;22;19979;-91
2022/09/15 00:28:37;;;;;;;;;;;20.30;87.70;;;;;;6339335;22;19988;-91
2022/09/15 00:31:07;;;;;;;;;;;20.30;87.70;;;;;;6339464;22;20345;-91
2022/09/15 00:33:33;;;;;;;;;;;20.30;87.80;;;;;;6339775;22;19940;-91
2022/09/15 00:36:00;;;;;;;;;;;20.20;88.30;;;;;;6339417;22;19939;-91
2022/09/15 00:38:26;;;;;;;;;;;20.10;88.50;;;;;;6339473;22;20005;-90
2022/09/15 00:40:53;;;;;;;;;;;20.10;88.70;;;;;;6339199;22;19942;-91
2022/09/15 00:43:20;;;;;;;;;;;20.00;88.60;;;;;;6339847;22;19936;-90
2022/09/15 00:45:47;;;;;;;;;;;20.00;88.70;;;;;;6339331;22;19946;-91
2022/09/15 00:48:19;;;;;;;;;;;19.90;88.10;;;;;;6339704;22;19972;-91
2022/09/15 00:50:46;;;;;;;;;;;19.80;88.30;;;;;;6339147;22;19951;-91
2022/09/15 00:53:12;;;;;;;;;;;19.80;88.50;;;;;;6339469;22;19934;-91
2022/09/15 00:55:43;;;;;;;;;;;19.80;88.80;;;;;;6338539;22;19978;-91
2022/09/15 00:58:14;;;;;;;;;;;19.80;88.90;;;;;;6339402;22;19955;-91
2022/09/15 01:00:44;;;;;;;;;;;19.80;89.00;;;;;;6339374;22;19937;-90
2022/09/15 01:03:09;;;;;;;;;;;19.80;88.80;;;;;;6339535;22;19932;-90
2022/09/15 01:05:37;;;;;;;;;;;19.80;88.80;;;;;;6338945;22;20269;-90
2022/09/15 01:08:12;;;;;;;;;;;19.70;89.00;;;;;;6339423;22;19935;-90
2022/09/15 01:10:39;;;;;;;;;;;19.70;88.80;;;;;;6338858;22;19931;-91
2022/09/15 01:13:07;;;;;;;;;;;19.60;88.90;;;;;;6339135;22;19930;-90
2022/09/15 01:15:51;;;;;;;;;;;19.40;89.30;;;;;;6338940;22;19939;-91
2022/09/15 01:18:19;;;;;;;;;;;19.30;89.80;;;;;;6338564;22;19961;-91
2022/09/15 01:20:54;;;;;;;;;;;19.30;90.00;;;;;;6339233;22;19972;-90
2022/09/15 01:23:23;;;;;;;;;;;19.30;90.30;;;;;;6339291;22;19934;-90
2022/09/15 01:25:49;;;;;;;;;;;19.30;90.90;;;;;;6311221;22;19968;-91
2022/09/15 01:28:23;;;;;;;;;;;19.30;91.30;;;;;;6311343;22;19946;-90
2022/09/15 01:31:15;;;;;;;;;;;19.40;91.50;;;;;;6339255;22;19940;-90
2022/09/15 01:33:48;;;;;;;;;;;19.50;91.30;;;;;;6331633;22;19963;-91
2022/09/15 01:36:34;;;;;;;;;;;19.50;91.20;;;;;;6338885;22;20351;-91
2022/09/15 01:39:05;;;;;;;;;;;19.50;91.00;;;;;;6337615;22;19956;-91
2022/09/15 01:41:36;;;;;;;;;;;19.50;90.80;;;;;;6339210;22;19940;-91
2022/09/15 01:44:09;;;;;;;;;;;19.40;90.60;;;;;;6339158;22;19942;-91
2022/09/15 01:46:38;;;;;;;;;;;19.40;90.00;;;;;;6338758;22;20009;-90
2022/09/15 01:49:05;;;;;;;;;;;19.30;89.90;;;;;;6311260;22;20024;-90
2022/09/15 01:51:32;;;;;;;;;;;19.30;89.60;;;;;;6339386;22;19948;-91
2022/09/15 01:53:59;;;;;;;;;;;19.30;89.60;;;;;;6338917;22;20006;-91
2022/09/15 01:56:25;;;;;;;;;;;19.30;89.50;;;;;;6310808;22;19960;-91
2022/09/15 01:58:51;;;;;;;;;;;19.30;89.60;;;;;;6338871;22;20385;-90
2022/09/15 02:01:20;;;;;;;;;;;19.30;90.20;;;;;;6338714;22;19960;-91
2022/09/15 02:03:54;;;;;;;;;;;19.30;90.40;;;;;;6339087;22;19936;-91
2022/09/15 02:06:19;;;;;;;;;;;19.40;90.70;;;;;;6339101;22;20017;-90
2022/09/15 02:08:51;;;;;;;;;;;19.40;90.90;;;;;;6338805;22;20351;-91
2022/09/15 02:11:18;;;;;;;;;;;19.50;91.20;;;;;;6338277;22;19984;-91
2022/09/15 02:13:47;;;;;;;;;;;19.50;91.30;;;;;;6339005;22;19934;-90
2022/09/15 02:16:18;;;;;;;;;;;19.60;91.50;;;;;;6311396;22;19941;-90
2022/09/15 02:18:48;;;;;;;;;;;19.60;91.50;;;;;;6338169;22;19955;-90
2022/09/15 02:21:20;;;;;;;;;;;19.60;90.70;;;;;;6338920;22;19955;-90
2022/09/15 02:23:51;;;;;;;;;;;19.40;90.10;;;;;;6338978;22;20012;-90
2022/09/15 02:26:19;;;;;;;;;;;19.40;90.20;;;;;;6338465;22;19946;-91
2022/09/15 02:28:46;;;;;;;;;;;19.40;90.10;;;;;;6338728;22;20345;-90
2022/09/15 02:31:13;;;;;;;;;;;19.40;90.20;;;;;;6338994;22;20261;-91
2022/09/15 02:33:43;;;;;;;;;;;19.40;90.40;;;;;;6339003;22;19968;-91
2022/09/15 02:36:10;;;;;;;;;;;19.30;90.40;;;;;;6339279;22;19984;-90
2022/09/15 02:38:39;;;;;;;;;;;19.10;90.10;;;;;;6338624;22;19958;-91
2022/09/15 02:41:05;;;;;;;;;;;19.00;90.40;;;;;;6338527;22;20008;-90
2022/09/15 02:43:31;;;;;;;;;;;19.00;90.40;;;;;;6339151;22;19967;-90
2022/09/15 02:45:56;;;;;;;;;;;19.10;90.40;;;;;;6338573;22;20043;-90
2022/09/15 02:48:24;;;;;;;;;;;19.10;90.40;;;;;;6310913;22;19982;-90
2022/09/15 02:50:49;;;;;;;;;;;19.10;90.50;;;;;;6339433;22;19953;-90
2022/09/15 02:53:15;;;;;;;;;;;19.10;90.60;;;;;;6340744;22;19948;-90
2022/09/15 02:55:40;;;;;;;;;;;19.20;90.70;;;;;;6340202;22;20382;-90
2022/09/15 02:58:06;;;;;;;;;;;19.20;90.80;;;;;;6340449;22;19961;-90
2022/09/15 03:00:31;;;;;;;;;;;19.10;90.90;;;;;;6340676;22;20471;-90
2022/09/15 03:02:57;;;;;;;;;;;19.10;90.90;;;;;;6340336;22;20245;-90
2022/09/15 03:05:24;;;;;;;;;;;19.00;91.00;;;;;;6340373;22;19935;-91
2022/09/15 03:07:50;;;;;;;;;;;19.10;91.30;;;;;;6340367;22;19928;-90
2022/09/15 03:10:16;;;;;;;;;;;19.00;91.50;;;;;;6340497;22;19934;-90
2022/09/15 03:12:46;;;;;;;;;;;19.00;91.50;;;;;;6339934;22;19936;-90
2022/09/15 03:15:12;;;;;;;;;;;19.00;91.50;;;;;;6340898;22;19936;-90
2022/09/15 03:17:40;;;;;;;;;;;18.90;90.80;;;;;;6312549;22;19958;-90
2022/09/15 03:20:06;;;;;;;;;;;18.80;91.30;;;;;;6340061;22;19939;-91
2022/09/15 03:22:32;;;;;;;;;;;18.90;91.90;;;;;;6340238;22;19948;-90
2022/09/15 03:24:58;;;;;;;;;;;18.90;92.00;;;;;;6340153;22;19930;-91
2022/09/15 03:27:23;;;;;;;;;;;18.90;92.10;;;;;;6340003;22;20246;-90
2022/09/15 03:29:49;;;;;;;;;;;18.90;92.10;;;;;;6340453;22;19976;-90
2022/09/15 03:32:15;;;;;;;;;;;18.90;92.20;;;;;;6340079;22;20250;-90
2022/09/15 03:34:40;;;;;;;;;;;19.00;92.20;;;;;;6339929;22;19937;-90
2022/09/15 03:37:06;;;;;;;;;;;18.80;91.80;;;;;;6339938;22;19964;-90
2022/09/15 03:39:31;;;;;;;;;;;18.70;92.10;;;;;;6340306;22;20364;-90
2022/09/15 03:41:57;;;;;;;;;;;18.70;92.50;;;;;;6339768;22;19959;-90
2022/09/15 03:44:23;;;;;;;;;;;18.70;92.70;;;;;;6339376;22;20300;-91
2022/09/15 03:46:48;;;;;;;;;;;18.70;92.80;;;;;;6339833;22;19930;-91
2022/09/15 03:49:14;;;;;;;;;;;18.70;93.00;;;;;;6339823;22;19940;-91
2022/09/15 03:51:40;;;;;;;;;;;18.70;93.10;;;;;;6339845;22;19956;-91
2022/09/15 03:54:06;;;;;;;;;;;18.70;93.10;;;;;;6339639;22;20019;-91
2022/09/15 03:56:31;;;;;;;;;;;18.80;93.20;;;;;;6340237;22;19983;-90
2022/09/15 03:58:58;;;;;;;;;;;18.80;93.10;;;;;;6339636;22;20038;-90
2022/09/15 04:01:24;;;;;;;;;;;18.90;93.20;;;;;;6339599;22;19938;-90
2022/09/15 04:03:50;;;;;;;;;;;19.00;92.70;;;;;;6339909;22;19935;-90
2022/09/15 04:06:16;;;;;;;;;;;19.10;92.10;;;;;;6339962;22;19933;-90
2022/09/15 04:08:41;;;;;;;;;;;19.10;92.00;;;;;;6339477;22;20009;-90
2022/09/15 04:11:08;;;;;;;;;;;19.10;91.80;;;;;;6339936;22;19970;-91
2022/09/15 04:13:34;;;;;;;;;;;19.00;91.10;;;;;;6339195;22;19944;-90
2022/09/15 04:16:03;;;;;;;;;;;18.80;90.90;;;;;;6312150;22;19932;-91
2022/09/15 04:18:29;;;;;;;;;;;18.90;91.10;;;;;;6339816;22;19950;-91
2022/09/15 04:21:02;;;;;;;;;;;18.70;90.90;;;;;;6311966;22;19985;-91
2022/09/15 04:23:27;;;;;;;;;;;18.60;91.60;;;;;;6339813;22;19935;-90
2022/09/15 04:25:54;;;;;;;;;;;18.60;91.90;;;;;;6339955;22;20320;-91
2022/09/15 04:28:20;;;;;;;;;;;18.70;92.30;;;;;;6339513;22;20360;-91
2022/09/15 04:30:45;;;;;;;;;;;18.70;92.50;;;;;;6339750;22;19935;-91
2022/09/15 04:33:11;;;;;;;;;;;18.70;92.50;;;;;;6339193;22;19930;-91
2022/09/15 04:35:36;;;;;;;;;;;18.80;92.50;;;;;;6339475;22;19930;-91
2022/09/15 04:38:02;;;;;;;;;;;18.70;92.30;;;;;;6339096;22;19965;-91
2022/09/15 04:40:27;;;;;;;;;;;18.70;92.30;;;;;;6339206;22;19959;-90
2022/09/15 04:42:53;;;;;;;;;;;18.70;92.20;;;;;;6338878;22;19931;-90
2022/09/15 04:45:19;;;;;;;;;;;18.70;92.00;;;;;;6339649;22;19956;-91
2022/09/15 04:47:47;;;;;;;;;;;18.60;91.80;;;;;;6339703;22;19933;-91
2022/09/15 04:50:12;;;;;;;;;;;18.60;91.70;;;;;;6339282;22;20007;-90
2022/09/15 04:52:38;;;;;;;;;;;18.60;91.80;;;;;;6339491;22;19954;-90
2022/09/15 04:55:04;;;;;;;;;;;18.60;91.80;;;;;;6339518;22;20050;-90
2022/09/15 04:57:29;;;;;;;;;;;18.60;91.70;;;;;;6338643;22;19986;-90
2022/09/15 04:59:55;;;;;;;;;;;18.60;91.60;;;;;;6339047;22;20323;-91
2022/09/15 05:02:20;;;;;;;;;;;18.60;91.60;;;;;;6339510;22;20353;-90
2022/09/15 05:04:47;;;;;;;;;;;18.70;91.70;;;;;;6339457;22;20371;-90
2022/09/15 05:07:13;;;;;;;;;;;18.80;92.00;;;;;;6338287;22;20016;-90
2022/09/15 05:09:38;;;;;;;;;;;18.90;91.90;;;;;;6337701;22;19940;-90
2022/09/15 05:12:04;;;;;;;;;;;18.90;91.80;;;;;;6338742;22;19932;-90
2022/09/15 05:14:30;;;;;;;;;;;18.90;91.90;;;;;;6337293;22;20013;-90
2022/09/15 05:16:56;;;;;;;;;;;19.00;91.70;;;;;;6338480;22;20346;-90
2022/09/15 05:19:21;;;;;;;;;;;18.90;91.30;;;;;;6338835;22;19977;-90
2022/09/15 05:21:47;;;;;;;;;;;19.00;91.30;;;;;;6338055;22;19931;-90
2022/09/15 05:24:12;;;;;;;;;;;19.00;91.10;;;;;;6338242;22;19935;-90
2022/09/15 05:26:38;;;;;;;;;;;19.00;90.90;;;;;;6338269;22;20348;-90
2022/09/15 05:29:03;;;;;;;;;;;19.10;91.00;;;;;;6338747;22;20270;-90
2022/09/15 05:31:30;;;;;;;;;;;19.20;90.80;;;;;;6338914;22;20260;-90
2022/09/15 05:33:56;;;;;;;;;;;19.30;91.00;;;;;;6338610;22;19930;-90
2022/09/15 05:36:23;;;;;;;;;;;19.30;91.20;;;;;;6339013;22;19947;-90
2022/09/15 05:38:50;;;;;;;;;;;19.40;91.20;;;;;;6339007;22;20030;-91
2022/09/15 05:41:16;;;;;;;;;;;19.50;91.20;;;;;;6338207;22;19933;-91
2022/09/15 05:43:42;;;;;;;;;;;19.50;91.00;;;;;;6337676;22;20028;-90
2022/09/15 05:46:08;;;;;;;;;;;19.60;90.80;;;;;;6338034;22;19990;-91
2022/09/15 05:48:34;;;;;;;;;;;19.70;90.70;;;;;;6338485;22;20377;-90
2022/09/15 05:50:59;;;;;;;;;;;19.80;90.50;;;;;;6338422;22;20366;-90
2022/09/15 05:53:25;;;;;;;;;;;19.80;90.30;;;;;;6337450;22;19986;-90
2022/09/15 05:55:57;;;;;;;;;;;19.90;90.30;;;;;;6337979;22;19934;-90
2022/09/15 05:58:23;;;;;;;;;;;20.00;90.30;;;;;;6309592;22;20295;-90
2022/09/15 06:00:49;;;;;;;;;;;20.10;90.30;;;;;;6337006;22;19937;-90
2022/09/15 06:03:15;;;;;;;;;;;20.10;90.20;;;;;;6336620;22;20011;-90
2022/09/15 06:05:41;;;;;;;;;;;20.20;90.20;;;;;;6337550;22;19935;-90
2022/09/15 06:08:07;;;;;;;;;;;20.20;90.10;;;;;;6310014;22;20022;-91
2022/09/15 06:10:32;;;;;;;;;;;20.30;90.10;;;;;;6337797;22;19933;-90
2022/09/15 06:12:58;;;;;;;;;;;20.30;90.00;;;;;;6338405;22;20325;-90
2022/09/15 06:15:24;;;;;;;;;;;20.30;89.80;;;;;;6338152;22;19933;-90
2022/09/15 06:17:49;;;;;;;;;;;20.40;89.70;;;;;;6338585;22;20215;-90
2022/09/15 06:20:15;;;;;;;;;;;20.50;89.80;;;;;;6337192;22;19961;-91
2022/09/15 06:22:41;;;;;;;;;;;20.60;89.80;;;;;;6338499;22;20001;-91
2022/09/15 06:25:07;;;;;;;;;;;20.60;89.90;;;;;;6337566;22;19932;-90
2022/09/15 06:27:32;;;;;;;;;;;20.70;89.90;;;;;;6339773;22;20313;-90
2022/09/15 06:29:58;;;;;;;;;;;20.80;89.60;;;;;;6304546;22;20011;-90
2022/09/15 06:32:23;;;;;;;;;;;20.90;89.30;;;;;;6340015;22;19939;-90
2022/09/15 06:34:49;;;;;;;;;;;21.00;89.10;;;;;;6339764;22;19930;-90
2022/09/15 06:37:15;;;;;;;;;;;21.20;88.90;;;;;;6339772;22;19958;-91
2022/09/15 06:39:42;;;;;;;;;;;21.30;88.20;;;;;;6339765;22;19970;-90
2022/09/15 06:42:08;;;;;;;;;;;21.30;87.70;;;;;;6338392;22;19935;-91
2022/09/15 06:44:34;;;;;;;;;;;21.30;87.80;;;;;;6339117;22;19936;-90
2022/09/15 06:46:59;;;;;;;;;;;21.30;87.90;;;;;;6339860;22;19933;-90
2022/09/15 06:49:25;;;;;;;;;;;21.50;88.10;;;;;;6337813;22;19941;-90
2022/09/15 06:51:51;;;;;;;;;;;21.50;87.60;;;;;;6310066;22;20035;-90
2022/09/15 06:54:16;;;;;;;;;;;21.50;87.40;;;;;;6338566;22;20003;-90
2022/09/15 06:56:42;;;;;;;;;;;21.50;87.40;;;;;;6339843;22;19941;-90
2022/09/15 06:59:11;;;;;;;;;;;21.60;87.40;;;;;;6339260;22;19987;-90
2022/09/15 07:01:37;;;;;;;;;;;21.60;87.20;;;;;;6339356;22;19973;-91
2022/09/15 07:04:04;;;;;;;;;;;21.70;86.90;;;;;;6339260;22;19942;-91
2022/09/15 07:06:30;;;;;;;;;;;21.70;86.90;;;;;;6339777;22;19937;-91
2022/09/15 07:08:57;;;;;;;;;;;21.80;86.60;;;;;;6338924;22;19941;-91
2022/09/15 07:11:23;;;;;;;;;;;21.80;86.70;;;;;;6339026;22;19933;-90
2022/09/15 07:13:48;;;;;;;;;;;21.80;86.60;;;;;;6339649;22;20019;-90
2022/09/15 07:16:14;;;;;;;;;;;21.80;86.60;;;;;;6338235;22;19933;-90
2022/09/15 07:18:40;;;;;;;;;;;21.90;86.50;;;;;;6338843;22;19969;-90
2022/09/15 07:21:07;;;;;;;;;;;21.90;86.50;;;;;;6338079;22;19943;-90
2022/09/15 07:23:33;;;;;;;;;;;21.90;86.50;;;;;;6339595;22;19985;-91
2022/09/15 07:26:06;;;;;;;;;;;21.90;86.80;;;;;;6311141;22;19939;-91
2022/09/15 07:28:32;;;;;;;;;;;21.90;87.00;;;;;;6338420;22;19929;-91
2022/09/15 07:30:57;;;;;;;;;;;21.90;87.20;;;;;;6339266;22;19938;-90
2022/09/15 07:33:23;;;;;;;;;;;21.90;87.10;;;;;;6340174;22;20017;-90
2022/09/15 07:35:49;;;;;;;;;;;21.90;87.00;;;;;;6311757;22;19937;-90
2022/09/15 07:38:14;;;;;;;;;;;21.90;87.10;;;;;;6339815;22;19967;-90
2022/09/15 07:40:40;;;;;;;;;;;21.80;87.40;;;;;;6339675;22;19932;-91
2022/09/15 07:43:06;;;;;;;;;;;21.80;87.50;;;;;;6339032;22;19942;-90
2022/09/15 07:45:32;;;;;;;;;;;21.80;87.70;;;;;;6339154;22;20371;-90
2022/09/15 07:47:57;;;;;;;;;;;21.80;87.90;;;;;;6339000;22;19940;-91
2022/09/15 07:50:23;;;;;;;;;;;21.80;88.00;;;;;;6338532;22;19944;-91
2022/09/15 07:52:48;;;;;;;;;;;21.80;88.20;;;;;;6312061;22;19970;-90
2022/09/15 07:55:14;;;;;;;;;;;21.90;88.40;;;;;;6338661;22;19975;-91
2022/09/15 07:57:39;;;;;;;;;;;22.00;88.30;;;;;;6338542;22;19952;-91
2022/09/15 08:00:05;;;;;;;;;;;22.10;87.90;;;;;;6338698;22;20325;-90
2022/09/15 08:02:31;;;;;;;;;;;22.20;87.80;;;;;;6338463;22;19935;-90
2022/09/15 08:04:56;;;;;;;;;;;22.30;87.40;;;;;;6338706;22;19944;-91
2022/09/15 08:07:22;;;;;;;;;;;22.30;87.20;;;;;;6338712;22;19935;-91
2022/09/15 08:09:48;;;;;;;;;;;22.40;85.90;;;;;;6338405;22;19931;-91
2022/09/15 08:12:14;;;;;;;;;;;22.50;86.10;;;;;;6338016;22;19936;-90
2022/09/15 08:14:39;;;;;;;;;;;22.60;86.30;;;;;;6338739;22;19943;-90
2022/09/15 08:17:05;;;;;;;;;;;22.70;85.90;;;;;;6338895;22;20007;-90
2022/09/15 08:19:31;;;;;;;;;;;22.70;85.20;;;;;;6338910;22;19944;-90
2022/09/15 08:21:57;;;;;;;;;;;22.90;85.30;;;;;;6338893;22;19937;-90
2022/09/15 08:24:23;;;;;;;;;;;22.90;84.80;;;;;;6338310;22;20307;-91
2022/09/15 08:26:49;;;;;;;;;;;23.00;84.50;;;;;;6339619;22;19960;-91
2022/09/15 08:29:16;;;;;;;;;;;23.10;84.40;;;;;;6337681;22;20360;-91
2022/09/15 08:31:43;;;;;;;;;;;23.20;84.10;;;;;;6338608;22;19931;-90
2022/09/15 08:34:13;;;;;;;;;;;23.20;83.30;;;;;;6337112;22;19936;-91
2022/09/15 08:36:39;;;;;;;;;;;23.30;82.70;;;;;;6337597;22;20057;-91
2022/09/15 08:39:05;;;;;;;;;;;23.30;82.50;;;;;;6338513;22;19984;-91
2022/09/15 08:41:38;;;;;;;;;;;23.40;82.20;;;;;;6337695;22;20027;-91
2022/09/15 08:44:09;;;;;;;;;;;23.50;81.70;;;;;;6338290;22;20006;-90
2022/09/15 08:46:38;;;;;;;;;;;23.50;81.60;;;;;;6338157;22;19939;-90
2022/09/15 08:49:03;;;;;;;;;;;23.60;81.30;;;;;;6337563;22;20392;-91
2022/09/15 08:51:42;;;;;;;;;;;23.70;81.30;;;;;;6336734;22;19979;-91
2022/09/15 08:54:12;;;;;;;;;;;23.70;81.40;;;;;;6336471;22;19981;-90
2022/09/15 08:56:40;;;;;;;;;;;23.80;80.60;;;;;;6338537;22;20001;-91
2022/09/15 08:59:08;;;;;;;;;;;23.80;80.30;;;;;;6338530;22;19952;-90
2022/09/15 09:01:37;;;;;;;;;;;23.80;80.70;;;;;;6338589;22;19960;-91
2022/09/15 09:04:02;;;;;;;;;;;23.90;80.30;;;;;;6338970;22;20339;-91
2022/09/15 09:06:46;;;;;;;;;;;23.90;80.20;;;;;;6338338;22;19982;-90
2022/09/15 09:09:12;;;;;;;;;;;24.00;80.00;;;;;;6337676;22;20369;-90
2022/09/15 09:11:37;;;;;;;;;;;24.10;79.40;;;;;;6337995;22;19963;-91
2022/09/15 09:14:13;;;;;;;;;;;24.10;79.50;;;;;;6337710;22;19937;-91
2022/09/15 09:16:49;;;;;;;;;;;24.20;79.90;;;;;;6338670;22;20306;-91
2022/09/15 09:19:30;;;;;;;;;;;24.30;77.30;;;;;;6338170;22;20272;-91
2022/09/15 09:21:58;;;;;;;;;;;24.30;76.80;;;;;;6337785;22;19981;-91
2022/09/15 09:24:34;;;;;;;;;;;24.30;76.70;;;;;;6337766;22;19931;-90
2022/09/15 09:26:59;;;;;;;;;;;24.40;76.50;;;;;;6336647;22;19989;-91
2022/09/15 09:29:48;;;;;;;;;;;24.50;76.40;;;;;;6337100;22;19938;-91
2022/09/15 09:32:34;;;;;;;;;;;24.60;76.10;;;;;;6336814;22;19944;-91
2022/09/15 09:35:07;;;;;;;;;;;24.70;75.70;;;;;;6335087;22;20351;-91
2022/09/15 09:37:33;;;;;;;;;;;25.00;72.30;;;;;;6337309;22;19967;-91
2022/09/15 09:39:59;;;;;;;;;;;25.10;73.30;;;;;;6337017;22;20008;-91
2022/09/15 09:42:29;;;;;;;;;;;25.20;72.20;;;;;;6336676;22;20566;-91
2022/09/15 09:44:55;;;;;;;;;;;25.20;72.20;;;;;;6337087;22;19934;-91
2022/09/15 09:47:24;;;;;;;;;;;25.30;73.00;;;;;;6336916;22;19938;-91
2022/09/15 09:49:50;;;;;;;;;;;25.40;73.40;;;;;;6337182;22;19966;-91
2022/09/15 09:52:33;;;;;;;;;;;25.30;73.30;;;;;;6337113;22;20001;-91
2022/09/15 09:54:59;;;;;;;;;;;25.50;74.00;;;;;;6337905;22;19974;-91
2022/09/15 09:57:29;;;;;;;;;;;25.60;74.80;;;;;;6338397;22;20011;-91
2022/09/15 09:59:54;;;;;;;;;;;25.70;72.40;;;;;;6337493;22;19932;-91
2022/09/15 10:02:21;;;;;;;;;;;25.80;72.20;;;;;;6337006;22;19941;-91
2022/09/15 10:04:48;;;;;;;;;;;25.90;73.10;;;;;;6336663;22;19938;-91
2022/09/15 10:07:15;;;;;;;;;;;26.20;72.80;;;;;;6337445;22;19997;-91
2022/09/15 10:09:49;;;;;;;;;;;26.30;71.30;;;;;;6338056;22;19940;-91
2022/09/15 10:12:18;;;;;;;;;;;26.30;69.50;;;;;;6337005;22;19969;-90
2022/09/15 10:14:49;;;;;;;;;;;26.20;70.60;;;;;;6337977;22;19936;-90
2022/09/15 10:17:16;;;;;;;;;;;26.20;71.60;;;;;;6338786;22;19948;-91
2022/09/15 10:19:55;;;;;;;;;;;26.30;69.50;;;;;;6339080;22;19934;-91
2022/09/15 10:22:26;;;;;;;;;;;26.30;69.30;;;;;;6337953;22;19941;-90
2022/09/15 10:24:53;;;;;;;;;;;26.50;69.70;;;;;;6338869;22;20015;-91
2022/09/15 10:27:29;;;;;;;;;;;26.70;69.10;;;;;;6338207;22;19935;-90
2022/09/15 10:29:57;;;;;;;;;;;26.70;68.30;;;;;;6338384;22;19965;-91
2022/09/15 10:32:24;;;;;;;;;;;26.60;67.90;;;;;;6338396;22;19944;-91
2022/09/15 10:35:00;;;;;;;;;;;26.70;68.20;;;;;;6338846;22;19932;-91
2022/09/15 10:37:28;;;;;;;;;;;26.80;67.10;;;;;;6338062;22;19962;-91
2022/09/15 10:39:55;;;;;;;;;;;27.00;66.90;;;;;;6338355;22;19986;-91
2022/09/15 10:42:30;;;;;;;;;;;27.10;66.60;;;;;;6338238;22;19942;-91
2022/09/15 10:45:16;;;;;;;;;;;27.20;65.10;;;;;;6338541;22;19936;-91
2022/09/15 10:47:50;;;;;;;;;;;27.20;64.80;;;;;;6338114;22;20374;-91
2022/09/15 10:50:23;;;;;;;;;;;27.20;66.20;;;;;;6338280;22;19936;-91
2022/09/15 10:52:58;;;;;;;;;;;27.30;63.80;;;;;;6337866;22;20407;-91
2022/09/15 10:55:24;;;;;;;;;;;27.50;63.30;;;;;;6338402;22;19990;-91
2022/09/15 10:57:56;;;;;;;;;;;27.70;61.60;;;;;;6338042;22;20291;-91
2022/09/15 11:00:23;;;;;;;;;;;27.80;63.70;;;;;;6338646;22;19975;-91
2022/09/15 11:03:07;;;;;;;;;;;28.30;61.20;;;;;;6337658;22;19930;-91
2022/09/15 11:05:35;;;;;;;;;;;28.30;60.10;;;;;;6338241;22;19930;-91
2022/09/15 11:08:06;;;;;;;;;;;28.40;60.20;;;;;;6338627;22;20401;-92
2022/09/15 11:10:55;;;;;;;;;;;28.50;58.80;;;;;;6338202;22;19932;-91
2022/09/15 11:13:24;;;;;;;;;;;28.50;58.80;;;;;;6319397;22;19936;-91
2022/09/15 11:15:57;;;;;;;;;;;28.80;58.10;;;;;;6339201;22;20358;-92
2022/09/15 11:18:42;;;;;;;;;;;28.90;57.60;;;;;;6340022;22;19990;-92
2022/09/15 11:21:18;;;;;;;;;;;29.00;56.70;;;;;;6339259;22;19986;-91
2022/09/15 11:23:47;;;;;;;;;;;29.10;54.50;;;;;;6340004;22;20663;-91
2022/09/15 11:26:33;;;;;;;;;;;29.10;55.30;;;;;;6339445;22;20409;-91
2022/09/15 11:29:02;;;;;;;;;;;29.20;54.10;;;;;;6338520;22;20028;-91
2022/09/15 11:31:38;;;;;;;;;;;29.30;54.00;;;;;;6338263;22;19946;-91
2022/09/15 11:34:03;;;;;;;;;;;29.40;52.50;;;;;;6339002;22;19941;-91
2022/09/15 11:36:32;;;;;;;;;;;29.70;52.60;;;;;;6337692;22;19963;-91
2022/09/15 11:39:16;;;;;;;;;;;29.70;48.90;;;;;;6339278;22;19953;-92
2022/09/15 11:41:44;;;;;;;;;;;29.70;49.80;;;;;;6311454;22;20346;-91
2022/09/15 11:44:13;;;;;;;;;;;29.70;49.10;;;;;;6338202;22;19942;-91
2022/09/15 11:46:57;;;;;;;;;;;29.70;48.40;;;;;;6338205;22;19937;-91
2022/09/15 11:49:44;;;;;;;;;;;29.70;48.70;;;;;;6338377;22;19956;-92
2022/09/15 11:52:09;;;;;;;;;;;29.60;49.40;;;;;;6339109;22;19952;-91
2022/09/15 11:54:42;;;;;;;;;;;29.70;48.50;;;;;;6338178;22;20018;-91
2022/09/15 11:57:15;;;;;;;;;;;29.80;49.30;;;;;;6337938;22;19957;-91
2022/09/15 11:59:47;;;;;;;;;;;30.00;48.40;;;;;;6338860;22;19937;-91
2022/09/15 12:02:27;;;;;;;;;;;30.00;47.80;;;;;;6337784;22;19929;-91
2022/09/15 12:04:59;;;;;;;;;;;29.70;49.10;;;;;;6338322;22;20341;-91
2022/09/15 12:07:29;;;;;;;;;;;29.70;49.10;;;;;;6310757;22;19959;-91
2022/09/15 12:10:03;;;;;;;;;;;29.70;49.70;;;;;;6338839;22;19942;-91
2022/09/15 12:12:28;;;;;;;;;;;29.80;48.60;;;;;;6338418;22;20304;-91
2022/09/15 12:14:55;;;;;;;;;;;29.70;49.00;;;;;;6337748;22;19969;-91
2022/09/15 12:17:29;;;;;;;;;;;29.70;49.60;;;;;;6311377;22;20008;-91
2022/09/15 12:19:59;;;;;;;;;;;29.40;50.20;;;;;;6334785;22;19970;-91
2022/09/15 12:22:39;;;;;;;;;;;29.30;50.40;;;;;;6338074;22;19937;-91
2022/09/15 12:25:09;;;;;;;;;;;29.10;51.20;;;;;;6338803;22;19934;-91
2022/09/15 12:27:35;;;;;;;;;;;29.00;50.80;;;;;;6338030;22;20311;-91
2022/09/15 12:30:01;;;;;;;;;;;29.00;51.40;;;;;;6337299;22;20027;-91
2022/09/15 12:32:28;;;;;;;;;;;29.00;51.70;;;;;;6338323;22;19969;-91
2022/09/15 12:34:55;;;;;;;;;;;29.00;52.30;;;;;;6336135;22;19943;-91
2022/09/15 12:37:22;;;;;;;;;;;29.00;52.50;;;;;;6311013;22;19936;-91
2022/09/15 12:39:47;;;;;;;;;;;29.20;52.40;;;;;;6336987;22;19970;-91
2022/09/15 12:42:17;;;;;;;;;;;29.30;52.00;;;;;;6337879;22;19934;-91
2022/09/15 12:44:46;;;;;;;;;;;29.20;52.00;;;;;;6306302;22;19940;-91
2022/09/15 12:47:20;;;;;;;;;;;29.40;52.40;;;;;;6338784;22;19960;-91
2022/09/15 12:49:47;;;;;;;;;;;29.50;51.60;;;;;;6336710;22;19938;-91
2022/09/15 12:52:13;;;;;;;;;;;29.50;50.50;;;;;;6336770;22;19949;-91
2022/09/15 12:54:40;;;;;;;;;;;29.40;51.00;;;;;;6336631;22;19966;-91
2022/09/15 12:57:06;;;;;;;;;;;29.40;50.40;;;;;;6337697;22;20338;-91
2022/09/15 12:59:32;;;;;;;;;;;29.30;50.90;;;;;;6336692;22;19935;-91
2022/09/15 13:01:58;;;;;;;;;;;29.50;51.10;;;;;;6337310;22;20009;-91
2022/09/15 13:04:44;;;;;;;;;;;29.80;50.70;;;;;;6337384;22;19949;-91
2022/09/15 13:07:17;;;;;;;;;;;29.90;50.10;;;;;;6309786;22;19940;-91
2022/09/15 13:09:44;;;;;;;;;;;29.70;50.30;;;;;;6337405;22;20382;-91
2022/09/15 13:12:12;;;;;;;;;;;29.70;50.20;;;;;;6336756;22;19934;-91
2022/09/15 13:14:40;;;;;;;;;;;29.70;50.20;;;;;;6337210;22;19938;-91
2022/09/15 13:17:13;;;;;;;;;;;29.90;50.50;;;;;;6336486;22;19933;-91
2022/09/15 13:19:40;;;;;;;;;;;29.80;50.50;;;;;;6337974;22;19943;-91
2022/09/15 13:22:32;;;;;;;;;;;29.70;51.30;;;;;;6337700;22;20008;-91
2022/09/15 13:25:12;;;;;;;;;;;29.90;51.00;;;;;;6329258;22;20046;-91
2022/09/15 13:27:45;;;;;;;;;;;29.80;51.30;;;;;;6335894;22;20032;-91
2022/09/15 13:30:23;;;;;;;;;;;29.80;51.60;;;;;;6335868;22;20036;-91
2022/09/15 13:32:48;;;;;;;;;;;29.80;51.50;;;;;;6335816;22;19944;-91
2022/09/15 13:35:19;;;;;;;;;;;30.00;51.90;;;;;;6337282;22;19964;-91
2022/09/15 13:37:54;;;;;;;;;;;30.20;51.20;;;;;;6336880;22;19937;-91
2022/09/15 13:40:34;;;;;;;;;;;30.30;51.40;;;;;;6336627;22;19929;-91
2022/09/15 13:43:03;;;;;;;;;;;30.70;50.40;;;;;;6307856;22;20422;-91
2022/09/15 13:45:32;;;;;;;;;;;30.70;50.20;;;;;;6336493;22;19936;-91
2022/09/15 13:48:08;;;;;;;;;;;30.80;49.50;;;;;;6336224;22;20022;-91
2022/09/15 13:50:42;;;;;;;;;;;30.80;50.00;;;;;;6335412;22;19972;-91
2022/09/15 13:53:28;;;;;;;;;;;30.70;48.70;;;;;;6336734;22;21651;-91
2022/09/15 13:55:54;;;;;;;;;;;30.30;51.00;;;;;;6337983;22;19954;-91
2022/09/15 13:58:22;;;;;;;;;;;30.20;50.20;;;;;;6337332;22;19974;-91
2022/09/15 14:00:54;;;;;;;;;;;30.40;49.80;;;;;;6330485;22;19954;-91
2022/09/15 14:03:24;;;;;;;;;;;30.70;49.30;;;;;;6336924;22;19935;-91
2022/09/15 14:05:54;;;;;;;;;;;30.80;49.00;;;;;;6336446;22;19939;-91
2022/09/15 14:08:28;;;;;;;;;;;30.60;49.20;;;;;;6337920;22;19962;-91
2022/09/15 14:10:57;;;;;;;;;;;30.20;51.20;;;;;;6335582;22;19971;-91
2022/09/15 14:13:25;;;;;;;;;;;29.90;51.50;;;;;;6337798;22;19943;-91
2022/09/15 14:15:57;;;;;;;;;;;29.70;51.80;;;;;;6337700;22;19941;-91
2022/09/15 14:18:23;;;;;;;;;;;29.70;51.90;;;;;;6336840;22;19936;-91
2022/09/15 14:21:04;;;;;;;;;;;29.70;52.40;;;;;;6334666;22;19932;-91
2022/09/15 14:23:30;;;;;;;;;;;29.60;52.60;;;;;;6337650;22;19928;-91
2022/09/15 14:25:58;;;;;;;;;;;29.70;52.50;;;;;;6336893;22;19979;-91